sensor_id;sensor_type;location;lat;lon;timestamp;pressure;altitude;pressure_sealevel;temperature;humidity
40171;BME280;37650;52.790;18.268;2023-04-10T00:02:41;101512.48;;;5.74;100.00
40171;BME280;37650;52.790;18.268;2023-04-10T00:06:04;101512.66;;;5.66;100.00
40171;BME280;37650;52.790;18.268;2023-04-10T00:09:27;101512.29;;;5.58;100.00
40171;BME280;37650;52.790;18.268;2023-04-10T00:12:49;101509.15;;;5.54;100.00
40171;BME280;37650;52.790;18.268;2023-04-10T00:16:11;101505.84;;;5.49;100.00
40171;BME280;37650;52.790;18.268;2023-04-10T00:19:32;101510.19;;;5.47;100.00
40171;BME280;37650;52.790;18.268;2023-04-10T00:22:54;101512.27;;;5.42;100.00
40171;BME280;37650;52.790;18.268;2023-04-10T00:26:15;101507.20;;;5.36;100.00
40171;BME280;37650;52.790;18.268;2023-04-10T00:29:36;101503.70;;;5.29;100.00
40171;BME280;37650;52.790;18.268;2023-04-10T00:32:57;101509.60;;;5.21;100.00
40171;BME280;37650;52.790;18.268;2023-04-10T00:36:19;101514.48;;;5.16;100.00
40171;BME280;37650;52.790;18.268;2023-04-10T00:39:40;101522.10;;;5.14;100.00
40171;BME280;37650;52.790;18.268;2023-04-10T00:43:01;101518.63;;;5.10;100.00
40171;BME280;37650;52.790;18.268;2023-04-10T00:46:23;101519.30;;;5.06;100.00
40171;BME280;37650;52.790;18.268;2023-04-10T00:49:44;101514.59;;;5.03;100.00
40171;BME280;37650;52.790;18.268;2023-04-10T00:53:06;101522.21;;;4.97;100.00
40171;BME280;37650;52.790;18.268;2023-04-10T00:56:29;101522.36;;;4.91;100.00
40171;BME280;37650;52.790;18.268;2023-04-10T00:59:52;101521.11;;;4.84;100.00
40171;BME280;37650;52.790;18.268;2023-04-10T01:03:15;101520.42;;;4.81;100.00
40171;BME280;37650;52.790;18.268;2023-04-10T01:06:45;101519.88;;;4.82;100.00
40171;BME280;37650;52.790;18.268;2023-04-10T01:10:26;101513.45;;;4.80;100.00
40171;BME280;37650;52.790;18.268;2023-04-10T01:17:21;101507.33;;;4.73;100.00
40171;BME280;37650;52.790;18.268;2023-04-10T01:20:47;101511.15;;;4.72;100.00
40171;BME280;37650;52.790;18.268;2023-04-10T01:31:18;101509.58;;;4.70;100.00
40171;BME280;37650;52.790;18.268;2023-04-10T01:34:45;101509.40;;;4.71;100.00
40171;BME280;37650;52.790;18.268;2023-04-10T01:38:08;101508.71;;;4.71;100.00
40171;BME280;37650;52.790;18.268;2023-04-10T01:41:32;101514.80;;;4.70;100.00
40171;BME280;37650;52.790;18.268;2023-04-10T01:44:54;101513.22;;;4.69;100.00
40171;BME280;37650;52.790;18.268;2023-04-10T01:48:17;101512.17;;;4.66;100.00
40171;BME280;37650;52.790;18.268;2023-04-10T01:51:39;101510.60;;;4.64;100.00
40171;BME280;37650;52.790;18.268;2023-04-10T01:55:06;101508.33;;;4.65;100.00
40171;BME280;37650;52.790;18.268;2023-04-10T01:58:37;101511.13;;;4.66;100.00
40171;BME280;37650;52.790;18.268;2023-04-10T02:01:59;101511.14;;;4.69;100.00
40171;BME280;37650;52.790;18.268;2023-04-10T02:05:24;101509.91;;;4.71;100.00
40171;BME280;37650;52.790;18.268;2023-04-10T02:08:58;101510.10;;;4.72;100.00
40171;BME280;37650;52.790;18.268;2023-04-10T02:12:27;101510.46;;;4.72;100.00
40171;BME280;37650;52.790;18.268;2023-04-10T02:15:51;101506.66;;;4.74;100.00
40171;BME280;37650;52.790;18.268;2023-04-10T02:19:16;101507.18;;;4.78;100.00
40171;BME280;37650;52.790;18.268;2023-04-10T02:22:40;101503.39;;;4.80;100.00
40171;BME280;37650;52.790;18.268;2023-04-10T02:26:07;101508.23;;;4.81;100.00
40171;BME280;37650;52.790;18.268;2023-04-10T02:29:29;101507.54;;;4.80;100.00
40171;BME280;37650;52.790;18.268;2023-04-10T02:32:50;101510.12;;;4.76;100.00
40171;BME280;37650;52.790;18.268;2023-04-10T02:36:12;101516.55;;;4.76;100.00
40171;BME280;37650;52.790;18.268;2023-04-10T02:39:33;101517.42;;;4.77;100.00
40171;BME280;37650;52.790;18.268;2023-04-10T02:42:55;101517.27;;;4.77;100.00
40171;BME280;37650;52.790;18.268;2023-04-10T02:46:16;101515.88;;;4.79;100.00
40171;BME280;37650;52.790;18.268;2023-04-10T02:49:38;101516.77;;;4.81;100.00
40171;BME280;37650;52.790;18.268;2023-04-10T02:53:05;101519.73;;;4.80;100.00
40171;BME280;37650;52.790;18.268;2023-04-10T02:56:26;101522.30;;;4.77;100.00
40171;BME280;37650;52.790;18.268;2023-04-10T02:59:50;101525.77;;;4.75;100.00
40171;BME280;37650;52.790;18.268;2023-04-10T03:03:12;101531.48;;;4.69;100.00
40171;BME280;37650;52.790;18.268;2023-04-10T03:06:40;101532.69;;;4.67;100.00
40171;BME280;37650;52.790;18.268;2023-04-10T03:10:01;101528.02;;;4.71;100.00
40171;BME280;37650;52.790;18.268;2023-04-10T03:13:22;101526.64;;;4.77;100.00
40171;BME280;37650;52.790;18.268;2023-04-10T03:16:43;101530.30;;;4.76;100.00
40171;BME280;37650;52.790;18.268;2023-04-10T03:20:05;101534.61;;;4.71;100.00
40171;BME280;37650;52.790;18.268;2023-04-10T03:23:28;101533.75;;;4.69;100.00
40171;BME280;37650;52.790;18.268;2023-04-10T03:26:49;101533.91;;;4.69;100.00
40171;BME280;37650;52.790;18.268;2023-04-10T03:30:12;101533.04;;;4.68;100.00
40171;BME280;37650;52.790;18.268;2023-04-10T03:33:35;101532.52;;;4.69;100.00
40171;BME280;37650;52.790;18.268;2023-04-10T03:36:56;101532.87;;;4.69;100.00
40171;BME280;37650;52.790;18.268;2023-04-10T03:40:17;101530.58;;;4.64;100.00
40171;BME280;37650;52.790;18.268;2023-04-10T03:43:39;101531.59;;;4.60;100.00
40171;BME280;37650;52.790;18.268;2023-04-10T03:47:01;101528.61;;;4.55;100.00
40171;BME280;37650;52.790;18.268;2023-04-10T03:50:22;101527.39;;;4.51;100.00
40171;BME280;37650;52.790;18.268;2023-04-10T03:53:47;101531.88;;;4.48;100.00
40171;BME280;37650;52.790;18.268;2023-04-10T03:57:10;101533.96;;;4.47;100.00
40171;BME280;37650;52.790;18.268;2023-04-10T04:00:32;101536.55;;;4.45;100.00
40171;BME280;37650;52.790;18.268;2023-04-10T04:04:00;101539.15;;;4.45;100.00
40171;BME280;37650;52.790;18.268;2023-04-10T04:07:39;101539.84;;;4.45;100.00
40171;BME280;37650;52.790;18.268;2023-04-10T04:11:23;101537.73;;;4.40;100.00
40171;BME280;37650;52.790;18.268;2023-04-10T04:14:52;101539.46;;;4.38;100.00
40171;BME280;37650;52.790;18.268;2023-04-10T04:18:33;101535.47;;;4.40;100.00
40171;BME280;37650;52.790;18.268;2023-04-10T04:22:29;101535.33;;;4.42;100.00
40171;BME280;37650;52.790;18.268;2023-04-10T04:26:03;101540.35;;;4.41;100.00
40171;BME280;37650;52.790;18.268;2023-04-10T04:29:51;101541.73;;;4.41;100.00
40171;BME280;37650;52.790;18.268;2023-04-10T04:33:37;101542.58;;;4.39;100.00
40171;BME280;37650;52.790;18.268;2023-04-10T04:37:17;101543.80;;;4.39;100.00
40171;BME280;37650;52.790;18.268;2023-04-10T04:40:57;101542.74;;;4.37;100.00
40171;BME280;37650;52.790;18.268;2023-04-10T04:44:37;101547.42;;;4.35;100.00
40171;BME280;37650;52.790;18.268;2023-04-10T04:48:19;101553.36;;;4.39;100.00
40171;BME280;37650;52.790;18.268;2023-04-10T04:52:04;101555.31;;;4.45;100.00
40171;BME280;37650;52.790;18.268;2023-04-10T04:55:35;101558.64;;;4.48;100.00
40171;BME280;37650;52.790;18.268;2023-04-10T04:59:19;101559.36;;;4.52;100.00
40171;BME280;37650;52.790;18.268;2023-04-10T05:03:09;101560.60;;;4.57;100.00
40171;BME280;37650;52.790;18.268;2023-04-10T05:06:56;101563.60;;;4.62;100.00
40171;BME280;37650;52.790;18.268;2023-04-10T05:10:47;101563.29;;;4.70;100.00
40171;BME280;37650;52.790;18.268;2023-04-10T05:14:28;101570.61;;;4.74;100.00
40171;BME280;37650;52.790;18.268;2023-04-10T05:18:00;101570.46;;;4.78;100.00
40171;BME280;37650;52.790;18.268;2023-04-10T05:21:38;101571.19;;;4.83;100.00
40171;BME280;37650;52.790;18.268;2023-04-10T05:25:37;101576.60;;;4.89;100.00
40171;BME280;37650;52.790;18.268;2023-04-10T05:29:14;101580.64;;;4.98;100.00
40171;BME280;37650;52.790;18.268;2023-04-10T05:33:03;101583.45;;;5.03;100.00
40171;BME280;37650;52.790;18.268;2023-04-10T05:36:43;101587.70;;;5.17;100.00
40171;BME280;37650;52.790;18.268;2023-04-10T05:40:14;101594.02;;;5.35;100.00
40171;BME280;37650;52.790;18.268;2023-04-10T05:43:54;101601.06;;;5.59;100.00
40171;BME280;37650;52.790;18.268;2023-04-10T05:47:39;101605.11;;;5.78;100.00
40171;BME280;37650;52.790;18.268;2023-04-10T05:51:15;101606.05;;;5.99;100.00
40171;BME280;37650;52.790;18.268;2023-04-10T05:54:51;101607.28;;;6.13;100.00
40171;BME280;37650;52.790;18.268;2023-04-10T05:58:25;101609.21;;;6.27;100.00
40171;BME280;37650;52.790;18.268;2023-04-10T06:02:05;101610.08;;;6.35;100.00
40171;BME280;37650;52.790;18.268;2023-04-10T06:05:27;101605.18;;;6.54;100.00
40171;BME280;37650;52.790;18.268;2023-04-10T06:08:52;101598.02;;;6.66;100.00
40171;BME280;37650;52.790;18.268;2023-04-10T06:12:13;101597.14;;;6.72;100.00
40171;BME280;37650;52.790;18.268;2023-04-10T06:15:34;101594.15;;;6.80;100.00
40171;BME280;37650;52.790;18.268;2023-04-10T06:19:05;101588.54;;;6.93;100.00
40171;BME280;37650;52.790;18.268;2023-04-10T06:22:27;101582.89;;;7.09;100.00
40171;BME280;37650;52.790;18.268;2023-04-10T06:25:48;101587.58;;;7.20;100.00
40171;BME280;37650;52.790;18.268;2023-04-10T06:29:10;101591.38;;;7.27;100.00
40171;BME280;37650;52.790;18.268;2023-04-10T06:32:32;101591.33;;;7.37;100.00
40171;BME280;37650;52.790;18.268;2023-04-10T06:35:54;101592.48;;;7.52;100.00
40171;BME280;37650;52.790;18.268;2023-04-10T06:39:17;101592.95;;;7.61;100.00
40171;BME280;37650;52.790;18.268;2023-04-10T06:42:38;101600.55;;;7.77;100.00
40171;BME280;37650;52.790;18.268;2023-04-10T06:46:06;101603.27;;;7.88;100.00
40171;BME280;37650;52.790;18.268;2023-04-10T06:49:28;101604.26;;;7.99;100.00
40171;BME280;37650;52.790;18.268;2023-04-10T06:52:49;101601.89;;;8.11;100.00
40171;BME280;37650;52.790;18.268;2023-04-10T06:56:10;101603.23;;;8.18;100.00
40171;BME280;37650;52.790;18.268;2023-04-10T06:59:31;101604.44;;;8.20;100.00
40171;BME280;37650;52.790;18.268;2023-04-10T07:02:54;101602.63;;;8.32;100.00
40171;BME280;37650;52.790;18.268;2023-04-10T07:06:15;101604.30;;;8.40;100.00
40171;BME280;37650;52.790;18.268;2023-04-10T07:09:37;101606.44;;;8.56;100.00
40171;BME280;37650;52.790;18.268;2023-04-10T07:12:58;101604.81;;;8.79;100.00
40171;BME280;37650;52.790;18.268;2023-04-10T07:16:19;101607.41;;;8.98;100.00
40171;BME280;37650;52.790;18.268;2023-04-10T07:19:41;101601.93;;;9.18;100.00
40171;BME280;37650;52.790;18.268;2023-04-10T07:23:02;101600.25;;;9.26;100.00
40171;BME280;37650;52.790;18.268;2023-04-10T07:26:24;101599.19;;;9.27;100.00
40171;BME280;37650;52.790;18.268;2023-04-10T07:29:45;101600.59;;;9.28;100.00
40171;BME280;37650;52.790;18.268;2023-04-10T07:33:06;101600.05;;;9.28;100.00
40171;BME280;37650;52.790;18.268;2023-04-10T07:36:27;101604.31;;;9.38;100.00
40171;BME280;37650;52.790;18.268;2023-04-10T07:39:49;101601.73;;;9.34;100.00
40171;BME280;37650;52.790;18.268;2023-04-10T07:43:11;101599.25;;;9.49;100.00
40171;BME280;37650;52.790;18.268;2023-04-10T07:46:32;101600.11;;;9.76;100.00
40171;BME280;37650;52.790;18.268;2023-04-10T07:49:53;101598.95;;;9.95;100.00
40171;BME280;37650;52.790;18.268;2023-04-10T07:53:14;101596.78;;;10.11;100.00
40171;BME280;37650;52.790;18.268;2023-04-10T07:56:36;101597.45;;;10.46;100.00
40171;BME280;37650;52.790;18.268;2023-04-10T07:59:57;101598.73;;;10.82;99.40
40171;BME280;37650;52.790;18.268;2023-04-10T08:03:18;101595.79;;;11.16;98.86
40171;BME280;37650;52.790;18.268;2023-04-10T08:06:39;101595.66;;;11.39;97.36
40171;BME280;37650;52.790;18.268;2023-04-10T08:10:01;101591.96;;;11.55;96.81
40171;BME280;37650;52.790;18.268;2023-04-10T08:13:22;101589.58;;;11.77;95.91
40171;BME280;37650;52.790;18.268;2023-04-10T08:16:43;101588.52;;;11.93;94.54
40171;BME280;37650;52.790;18.268;2023-04-10T08:20:05;101585.50;;;12.08;94.54
40171;BME280;37650;52.790;18.268;2023-04-10T08:23:27;101584.95;;;12.31;93.61
40171;BME280;37650;52.790;18.268;2023-04-10T08:26:48;101585.62;;;12.46;92.47
40171;BME280;37650;52.790;18.268;2023-04-10T08:30:10;101578.48;;;12.83;93.14
40171;BME280;37650;52.790;18.268;2023-04-10T08:33:31;101575.94;;;13.17;91.69
40171;BME280;37650;52.790;18.268;2023-04-10T08:36:53;101571.42;;;13.57;90.80
40171;BME280;37650;52.790;18.268;2023-04-10T08:40:17;101568.88;;;13.71;89.41
40171;BME280;37650;52.790;18.268;2023-04-10T08:43:37;101573.84;;;13.81;87.41
40171;BME280;37650;52.790;18.268;2023-04-10T08:46:59;101573.42;;;13.55;85.61
40171;BME280;37650;52.790;18.268;2023-04-10T08:50:20;101568.61;;;13.51;85.71
40171;BME280;37650;52.790;18.268;2023-04-10T08:53:43;101569.73;;;13.77;86.47
40171;BME280;37650;52.790;18.268;2023-04-10T08:57:06;101568.16;;;14.15;84.20
40171;BME280;37650;52.790;18.268;2023-04-10T09:00:28;101565.52;;;14.26;84.78
40171;BME280;37650;52.790;18.268;2023-04-10T09:03:51;101560.30;;;14.85;84.86
40171;BME280;37650;52.790;18.268;2023-04-10T09:07:12;101556.78;;;15.36;82.39
40171;BME280;37650;52.790;18.268;2023-04-10T09:10:34;101553.60;;;16.03;80.63
40171;BME280;37650;52.790;18.268;2023-04-10T09:13:55;101548.91;;;16.64;79.24
40171;BME280;37650;52.790;18.268;2023-04-10T09:17:23;101546.86;;;16.94;75.74
40171;BME280;37650;52.790;18.268;2023-04-10T09:20:44;101547.27;;;17.65;76.46
40171;BME280;37650;52.790;18.268;2023-04-10T09:24:11;101539.90;;;17.86;71.82
40171;BME280;37650;52.790;18.268;2023-04-10T09:27:34;101533.42;;;18.44;73.58
40171;BME280;37650;52.790;18.268;2023-04-10T09:30:55;101526.95;;;19.06;72.83
40171;BME280;37650;52.790;18.268;2023-04-10T09:34:18;101515.05;;;19.64;72.03
40171;BME280;37650;52.790;18.268;2023-04-10T09:37:40;101512.73;;;20.10;67.74
40171;BME280;37650;52.790;18.268;2023-04-10T09:41:08;101509.38;;;20.15;65.94
40171;BME280;37650;52.790;18.268;2023-04-10T09:44:32;101500.95;;;20.37;66.50
40171;BME280;37650;52.790;18.268;2023-04-10T09:48:04;101499.79;;;20.79;63.35
40171;BME280;37650;52.790;18.268;2023-04-10T09:51:35;101495.19;;;20.67;62.80
40171;BME280;37650;52.790;18.268;2023-04-10T09:54:58;101494.66;;;21.12;62.83
40171;BME280;37650;52.790;18.268;2023-04-10T09:58:20;101489.13;;;21.40;59.80
40171;BME280;37650;52.790;18.268;2023-04-10T10:01:42;101485.27;;;21.06;58.75
40171;BME280;37650;52.790;18.268;2023-04-10T10:05:04;101480.16;;;21.08;58.85
40171;BME280;37650;52.790;18.268;2023-04-10T10:08:26;101477.98;;;21.50;59.59
40171;BME280;37650;52.790;18.268;2023-04-10T10:11:48;101471.84;;;21.89;58.28
40171;BME280;37650;52.790;18.268;2023-04-10T10:15:41;101466.91;;;21.96;56.33
40171;BME280;37650;52.790;18.268;2023-04-10T10:19:26;101460.18;;;22.34;57.16
40171;BME280;37650;52.790;18.268;2023-04-10T10:22:51;101454.96;;;22.60;53.82
40171;BME280;37650;52.790;18.268;2023-04-10T10:26:14;101451.55;;;21.90;52.90
40171;BME280;37650;52.790;18.268;2023-04-10T10:29:40;101450.83;;;21.93;52.71
40171;BME280;37650;52.790;18.268;2023-04-10T10:33:05;101443.57;;;22.18;54.28
40171;BME280;37650;52.790;18.268;2023-04-10T10:36:27;101442.69;;;22.39;53.68
40171;BME280;37650;52.790;18.268;2023-04-10T10:43:36;101439.75;;;22.17;53.17
40171;BME280;37650;52.790;18.268;2023-04-10T10:50:57;101437.41;;;22.32;51.25
40171;BME280;37650;52.790;18.268;2023-04-10T10:54:30;101436.83;;;22.07;50.66
40171;BME280;37650;52.790;18.268;2023-04-10T10:57:52;101430.33;;;22.03;52.35
40171;BME280;37650;52.790;18.268;2023-04-10T11:01:14;101424.56;;;22.58;52.73
40171;BME280;37650;52.790;18.268;2023-04-10T11:04:43;101420.59;;;23.03;52.08
40171;BME280;37650;52.790;18.268;2023-04-10T11:08:06;101418.77;;;23.18;51.08
40171;BME280;37650;52.790;18.268;2023-04-10T11:11:28;101420.65;;;23.24;50.42
40171;BME280;37650;52.790;18.268;2023-04-10T11:14:58;101416.33;;;23.22;50.84
40171;BME280;37650;52.790;18.268;2023-04-10T11:22:07;101415.52;;;23.76;50.63
40171;BME280;37650;52.790;18.268;2023-04-10T11:25:48;101410.84;;;23.78;48.56
40171;BME280;37650;52.790;18.268;2023-04-10T11:32:41;101402.11;;;22.84;47.48
40171;BME280;37650;52.790;18.268;2023-04-10T11:36:03;101397.75;;;22.78;48.50
40171;BME280;37650;52.790;18.268;2023-04-10T11:39:26;101392.96;;;22.94;48.72
40171;BME280;37650;52.790;18.268;2023-04-10T11:42:47;101386.28;;;23.22;47.81
40171;BME280;37650;52.790;18.268;2023-04-10T11:46:08;101388.69;;;23.08;46.66
40171;BME280;37650;52.790;18.268;2023-04-10T11:49:31;101382.91;;;22.78;46.34
40171;BME280;37650;52.790;18.268;2023-04-10T11:52:52;101379.75;;;22.59;46.78
40171;BME280;37650;52.790;18.268;2023-04-10T11:56:18;101376.85;;;22.64;46.75
40171;BME280;37650;52.790;18.268;2023-04-10T11:59:48;101369.56;;;22.31;45.54
40171;BME280;37650;52.790;18.268;2023-04-10T12:03:10;101364.85;;;21.99;45.44
40171;BME280;37650;52.790;18.268;2023-04-10T12:06:31;101364.38;;;21.53;44.76
40171;BME280;37650;52.790;18.268;2023-04-10T12:09:55;101360.36;;;20.22;46.71
40171;BME280;37650;52.790;18.268;2023-04-10T12:13:28;101349.48;;;20.46;48.76
40171;BME280;37650;52.790;18.268;2023-04-10T12:16:50;101351.98;;;21.07;48.05
40171;BME280;37650;52.790;18.268;2023-04-10T12:20:14;101348.83;;;21.08;46.66
40171;BME280;37650;52.790;18.268;2023-04-10T12:23:37;101342.91;;;21.25;47.66
40171;BME280;37650;52.790;18.268;2023-04-10T12:26:59;101335.65;;;21.40;47.67
40171;BME280;37650;52.790;18.268;2023-04-10T12:30:19;101328.60;;;21.76;48.32
40171;BME280;37650;52.790;18.268;2023-04-10T12:33:45;101326.55;;;21.92;46.31
40171;BME280;37650;52.790;18.268;2023-04-10T12:37:07;101322.83;;;21.53;46.24
40171;BME280;37650;52.790;18.268;2023-04-10T12:40:29;101321.77;;;21.56;46.82
40171;BME280;37650;52.790;18.268;2023-04-10T12:43:52;101317.80;;;21.69;47.12
40171;BME280;37650;52.790;18.268;2023-04-10T12:47:13;101317.34;;;21.66;46.76
40171;BME280;37650;52.790;18.268;2023-04-10T12:50:45;101313.93;;;21.91;46.75
40171;BME280;37650;52.790;18.268;2023-04-10T12:54:07;101305.45;;;22.13;45.24
40171;BME280;37650;52.790;18.268;2023-04-10T12:57:29;101299.73;;;22.13;45.42
40171;BME280;37650;52.790;18.268;2023-04-10T13:00:50;101298.23;;;22.29;44.85
40171;BME280;37650;52.790;18.268;2023-04-10T13:04:11;101292.01;;;22.06;45.26
40171;BME280;37650;52.790;18.268;2023-04-10T13:07:32;101291.62;;;21.96;45.15
40171;BME280;37650;52.790;18.268;2023-04-10T13:10:54;101282.66;;;21.81;44.46
40171;BME280;37650;52.790;18.268;2023-04-10T13:14:17;101283.05;;;21.52;44.67
40171;BME280;37650;52.790;18.268;2023-04-10T13:17:39;101273.98;;;21.29;45.40
40171;BME280;37650;52.790;18.268;2023-04-10T13:21:01;101270.65;;;21.49;45.13
40171;BME280;37650;52.790;18.268;2023-04-10T13:24:23;101261.11;;;21.21;44.80
40171;BME280;37650;52.790;18.268;2023-04-10T13:27:43;101263.69;;;20.93;45.72
40171;BME280;37650;52.790;18.268;2023-04-10T13:31:05;101260.05;;;21.07;46.42
40171;BME280;37650;52.790;18.268;2023-04-10T13:34:27;101258.64;;;20.31;45.46
40171;BME280;37650;52.790;18.268;2023-04-10T13:37:48;101254.59;;;19.47;47.03
40171;BME280;37650;52.790;18.268;2023-04-10T13:41:13;101248.96;;;19.04;47.94
40171;BME280;37650;52.790;18.268;2023-04-10T13:44:34;101246.39;;;18.52;48.16
40171;BME280;37650;52.790;18.268;2023-04-10T13:47:56;101245.58;;;18.13;49.28
40171;BME280;37650;52.790;18.268;2023-04-10T13:51:17;101240.83;;;17.79;49.74
40171;BME280;37650;52.790;18.268;2023-04-10T13:54:38;101239.27;;;17.51;50.58
40171;BME280;37650;52.790;18.268;2023-04-10T13:58:00;101234.69;;;17.34;51.02
40171;BME280;37650;52.790;18.268;2023-04-10T14:01:21;101226.77;;;17.25;51.59
40171;BME280;37650;52.790;18.268;2023-04-10T14:04:42;101228.55;;;17.33;52.04
40171;BME280;37650;52.790;18.268;2023-04-10T14:08:05;101221.93;;;17.30;52.34
40171;BME280;37650;52.790;18.268;2023-04-10T14:11:27;101217.84;;;17.24;52.93
40171;BME280;37650;52.790;18.268;2023-04-10T14:14:48;101212.73;;;17.19;52.98
40171;BME280;37650;52.790;18.268;2023-04-10T14:18:10;101211.04;;;17.18;53.33
40171;BME280;37650;52.790;18.268;2023-04-10T14:21:31;101206.45;;;17.24;53.94
40171;BME280;37650;52.790;18.268;2023-04-10T14:24:53;101201.73;;;17.40;54.20
40171;BME280;37650;52.790;18.268;2023-04-10T14:28:14;101195.33;;;17.84;54.34
40171;BME280;37650;52.790;18.268;2023-04-10T14:31:38;101196.35;;;17.88;53.87
40171;BME280;37650;52.790;18.268;2023-04-10T14:34:59;101187.38;;;18.12;53.77
40171;BME280;37650;52.790;18.268;2023-04-10T14:38:21;101183.53;;;18.18;53.79
40171;BME280;37650;52.790;18.268;2023-04-10T14:41:42;101179.40;;;18.22;53.77
40171;BME280;37650;52.790;18.268;2023-04-10T16:59:15;101032.23;;;14.78;62.94
40171;BME280;37650;52.790;18.268;2023-04-10T17:02:37;101034.80;;;14.65;63.56
40171;BME280;37650;52.790;18.268;2023-04-10T17:05:58;101030.37;;;14.53;64.21
40171;BME280;37650;52.790;18.268;2023-04-10T17:09:19;101027.59;;;14.43;64.85
40171;BME280;37650;52.790;18.268;2023-04-10T17:12:41;101021.80;;;14.34;65.36
40171;BME280;37650;52.790;18.268;2023-04-10T17:16:03;101019.40;;;14.23;66.15
40171;BME280;37650;52.790;18.268;2023-04-10T17:19:27;101022.84;;;14.09;67.03
40171;BME280;37650;52.790;18.268;2023-04-10T17:22:50;101019.42;;;13.94;67.93
40171;BME280;37650;52.790;18.268;2023-04-10T17:26:21;101019.47;;;13.79;68.49
40171;BME280;37650;52.790;18.268;2023-04-10T17:29:44;101016.70;;;13.65;68.88
40171;BME280;37650;52.790;18.268;2023-04-10T17:33:07;101020.48;;;13.54;69.41
40171;BME280;37650;52.790;18.268;2023-04-10T17:36:29;101019.29;;;13.39;69.92
40171;BME280;37650;52.790;18.268;2023-04-10T17:39:52;101020.84;;;13.27;70.69
40171;BME280;37650;52.790;18.268;2023-04-10T17:43:15;101019.23;;;13.13;71.58
40171;BME280;37650;52.790;18.268;2023-04-10T17:46:37;101021.11;;;12.99;72.50
40171;BME280;37650;52.790;18.268;2023-04-10T17:49:59;101020.77;;;12.85;72.94
40171;BME280;37650;52.790;18.268;2023-04-10T17:53:21;101016.45;;;12.68;73.50
40171;BME280;37650;52.790;18.268;2023-04-10T17:56:42;101014.08;;;12.51;74.39
40171;BME280;37650;52.790;18.268;2023-04-10T18:00:08;101013.59;;;12.35;75.00
40171;BME280;37650;52.790;18.268;2023-04-10T18:03:29;101014.64;;;12.18;75.66
40171;BME280;37650;52.790;18.268;2023-04-10T18:06:52;101011.83;;;12.03;75.97
40171;BME280;37650;52.790;18.268;2023-04-10T18:10:13;101011.08;;;11.89;76.76
40171;BME280;37650;52.790;18.268;2023-04-10T18:13:35;101010.80;;;11.75;77.34
40171;BME280;37650;52.790;18.268;2023-04-10T18:16:57;101007.34;;;11.62;77.91
40171;BME280;37650;52.790;18.268;2023-04-10T18:20:18;101019.48;;;11.50;78.52
40171;BME280;37650;52.790;18.268;2023-04-10T18:23:41;101017.92;;;11.37;79.03
40171;BME280;37650;52.790;18.268;2023-04-10T18:27:05;101020.38;;;11.25;79.94
40171;BME280;37650;52.790;18.268;2023-04-10T18:35:29;101027.98;;;11.06;81.44
40171;BME280;37650;52.790;18.268;2023-04-10T18:38:50;101030.02;;;11.02;81.69
40171;BME280;37650;52.790;18.268;2023-04-10T18:42:12;101027.40;;;10.96;82.07
40171;BME280;37650;52.790;18.268;2023-04-10T18:45:33;101023.48;;;10.91;82.59
40171;BME280;37650;52.790;18.268;2023-04-10T18:48:57;101022.28;;;10.84;82.89
40171;BME280;37650;52.790;18.268;2023-04-10T18:52:20;101021.41;;;10.77;83.25
40171;BME280;37650;52.790;18.268;2023-04-10T18:55:50;101021.48;;;10.69;83.62
40171;BME280;37650;52.790;18.268;2023-04-10T18:59:13;101020.37;;;10.58;84.09
40171;BME280;37650;52.790;18.268;2023-04-10T19:02:35;101019.38;;;10.49;84.60
40171;BME280;37650;52.790;18.268;2023-04-10T19:05:57;101013.60;;;10.49;84.42
40171;BME280;37650;52.790;18.268;2023-04-10T19:09:19;101009.73;;;10.49;84.83
40171;BME280;37650;52.790;18.268;2023-04-10T19:12:41;101005.91;;;10.47;84.69
40171;BME280;37650;52.790;18.268;2023-04-10T19:16:05;101004.05;;;10.46;84.61
40171;BME280;37650;52.790;18.268;2023-04-10T19:19:28;101001.11;;;10.43;84.89
40171;BME280;37650;52.790;18.268;2023-04-10T19:22:50;100996.92;;;10.42;84.89
40171;BME280;37650;52.790;18.268;2023-04-10T19:26:13;100993.91;;;10.44;84.63
40171;BME280;37650;52.790;18.268;2023-04-10T19:29:34;100996.61;;;10.48;84.68
40171;BME280;37650;52.790;18.268;2023-04-10T19:32:58;100993.60;;;10.49;84.59
40171;BME280;37650;52.790;18.268;2023-04-10T19:36:19;100987.86;;;10.47;84.60
40171;BME280;37650;52.790;18.268;2023-04-10T19:39:41;100987.58;;;10.39;84.65
40171;BME280;37650;52.790;18.268;2023-04-10T19:43:03;100988.54;;;10.29;84.94
40171;BME280;37650;52.790;18.268;2023-04-10T19:46:24;100987.90;;;10.19;85.33
40171;BME280;37650;52.790;18.268;2023-04-10T19:49:46;100985.13;;;10.10;85.89
40171;BME280;37650;52.790;18.268;2023-04-10T19:53:07;100986.73;;;9.95;86.05
40171;BME280;37650;52.790;18.268;2023-04-10T19:56:32;100985.33;;;9.82;86.38
40171;BME280;37650;52.790;18.268;2023-04-10T19:59:57;100972.57;;;9.72;86.81
40171;BME280;37650;52.790;18.268;2023-04-10T20:03:20;100963.06;;;9.67;87.20
40171;BME280;37650;52.790;18.268;2023-04-10T20:06:46;100957.55;;;9.63;87.70
40171;BME280;37650;52.790;18.268;2023-04-10T20:10:08;100951.62;;;9.55;88.24
40171;BME280;37650;52.790;18.268;2023-04-10T20:13:29;100948.16;;;9.46;88.75
40171;BME280;37650;52.790;18.268;2023-04-10T20:16:51;100940.69;;;9.37;89.10
40171;BME280;37650;52.790;18.268;2023-04-10T20:20:12;100940.91;;;9.26;89.62
40171;BME280;37650;52.790;18.268;2023-04-10T20:23:33;100943.88;;;9.19;89.89